Time;durP1;ratioP1;P1;durP2;ratioP2;P2;SDS_P1;SDS_P2;PMS_P1;PMS_P2;Temp;Humidity;BMP_temperature;BMP_pressure;BME280_temperature;BME280_humidity;BME280_pressure;Samples;Min_cycle;Max_cycle;Signal;HPM_P1;HPM_P2
2022/12/18 00:01:20;;;;;;;;;;;;;;;-7.76;100.00;101838.03;5068938;28;20099;-70
2022/12/18 00:03:47;;;;;;;58.28;19.10;;;;;;;-7.64;100.00;101833.50;5065760;28;20373;-70
2022/12/18 00:06:15;;;;;;;59.35;20.30;;;;;;;-7.82;100.00;101784.63;5071116;28;20454;-71
2022/12/18 00:08:43;;;;;;;52.50;18.55;;;;;;;-7.69;100.00;101829.81;5080224;28;20058;-70
2022/12/18 00:11:19;;;;;;;56.63;19.10;;;;;;;-7.77;100.00;101831.13;5077634;28;20554;-69
2022/12/18 00:13:46;;;;;;;50.92;17.73;;;;;;;-8.12;100.00;101790.81;5077054;28;20228;-70
2022/12/18 00:16:15;;;;;;;52.20;19.15;;;;;;;-7.89;100.00;101833.09;5084170;28;20069;-71
2022/12/18 00:18:42;;;;;;;51.38;17.77;;;;;;;-8.03;100.00;101803.25;5080841;28;20884;-73
2022/12/18 00:21:11;;;;;;;52.97;19.02;;;;;;;-7.94;100.00;101834.53;5076891;28;20044;-72
2022/12/18 00:23:40;;;;;;;51.47;18.77;;;;;;;-8.01;100.00;101832.47;5066405;28;20054;-70
2022/12/18 00:26:15;;;;;;;56.15;21.00;;;;;;;-8.00;100.00;101834.22;5065074;28;20097;-71
2022/12/18 00:28:43;;;;;;;54.25;17.85;;;;;;;-7.99;100.00;101838.56;5066040;28;20151;-70
2022/12/18 00:31:12;;;;;;;53.50;18.88;;;;;;;-8.01;100.00;101832.47;5068857;28;20104;-70
2022/12/18 00:33:39;;;;;;;43.23;14.90;;;;;;;-8.11;100.00;101828.56;5066811;28;20117;-71
2022/12/18 00:36:12;;;;;;;53.25;18.65;;;;;;;-8.19;100.00;101833.31;5078706;28;20044;-70
2022/12/18 00:38:38;;;;;;;58.70;19.88;;;;;;;-8.22;100.00;101829.69;5078739;28;20372;-71
2022/12/18 00:41:06;;;;;;;59.88;19.70;;;;;;;-8.23;100.00;101828.81;5084739;28;21012;-71
2022/12/18 00:43:33;;;;;;;54.70;19.10;;;;;;;-8.25;100.00;101825.28;5073063;28;20247;-71
2022/12/18 00:45:59;;;;;;;53.80;18.83;;;;;;;-8.29;100.00;101817.31;5080189;28;20051;-71
2022/12/18 00:48:26;;;;;;;54.42;18.45;;;;;;;-8.27;100.00;101819.19;5068576;28;20109;-70
2022/12/18 00:50:53;;;;;;;52.13;18.73;;;;;;;-8.29;100.00;101823.34;5073708;27;20056;-70
2022/12/18 00:53:20;;;;;;;53.70;18.63;;;;;;;-8.42;100.00;101812.41;5066134;28;20490;-72
2022/12/18 00:55:46;;;;;;;51.85;19.15;;;;;;;-8.29;100.00;101843.91;5064519;28;20052;-69
2022/12/18 00:58:16;;;;;;;55.50;19.67;;;;;;;-8.34;100.00;101850.50;5066868;28;20048;-72
2022/12/18 01:00:42;;;;;;;48.47;18.40;;;;;;;-8.38;100.00;101851.19;5070176;28;20060;-71
2022/12/18 01:03:13;;;;;;;48.97;17.55;;;;;;;-8.43;100.00;101846.59;5067822;28;21818;-71
2022/12/18 01:05:41;;;;;;;52.03;18.65;;;;;;;-8.43;100.00;101851.72;5068112;28;20044;-71
2022/12/18 01:08:08;;;;;;;49.92;16.65;;;;;;;-8.51;100.00;101847.09;5069965;28;20056;-69
2022/12/18 01:10:34;;;;;;;45.60;17.25;;;;;;;-8.58;100.00;101854.38;5078842;28;20136;-71
2022/12/18 01:13:01;;;;;;;47.38;16.25;;;;;;;-8.65;100.00;101848.03;5087876;28;20054;-70
2022/12/18 01:15:27;;;;;;;44.80;16.40;;;;;;;-8.70;100.00;101843.47;5079665;28;20068;-69
2022/12/18 01:17:54;;;;;;;44.63;17.15;;;;;;;-8.76;100.00;101849.13;5075449;28;20048;-70
2022/12/18 01:20:20;;;;;;;38.90;15.77;;;;;;;-8.78;100.00;101852.44;5078217;28;20044;-69
2022/12/18 01:22:47;;;;;;;45.85;16.73;;;;;;;-8.77;100.00;101856.75;5063208;28;20063;-71
2022/12/18 01:25:13;;;;;;;44.92;16.25;;;;;;;-8.84;100.00;101846.97;5067306;28;20169;-70
2022/12/18 01:27:40;;;;;;;44.33;16.20;;;;;;;-8.84;100.00;101854.69;5063440;28;20148;-69
2022/12/18 01:30:07;;;;;;;41.90;16.70;;;;;;;-8.81;100.00;101865.13;5067875;28;20040;-69
2022/12/18 01:32:34;;;;;;;50.67;16.77;;;;;;;-8.74;100.00;101859.50;5066323;28;20046;-69
2022/12/18 01:35:00;;;;;;;49.70;17.98;;;;;;;-8.70;100.00;101864.88;5062294;28;20044;-69
2022/12/18 01:37:27;;;;;;;46.70;16.02;;;;;;;-8.65;100.00;101873.69;5069551;28;20044;-69
2022/12/18 01:39:56;;;;;;;55.58;18.30;;;;;;;-8.65;100.00;101885.66;5064393;27;20131;-69
2022/12/18 01:42:23;;;;;;;47.53;16.48;;;;;;;-8.80;100.00;101869.44;5065131;28;20056;-69
2022/12/18 01:44:58;;;;;;;47.78;17.17;;;;;;;-8.74;100.00;101886.06;5061061;28;22328;-70
2022/12/18 01:47:33;;;;;;;43.67;15.95;;;;;;;-8.95;100.00;101849.81;5067546;28;20258;-70
2022/12/18 01:50:06;;;;;;;51.83;17.75;;;;;;;-8.88;100.00;101857.06;5076489;28;20059;-69
2022/12/18 01:52:34;;;;;;;46.63;17.40;;;;;;;-8.74;100.00;101862.94;5068378;28;20079;-69
2022/12/18 01:55:02;;;;;;;50.95;17.13;;;;;;;-8.72;100.00;101871.63;5060989;28;20534;-70
2022/12/18 01:57:29;;;;;;;47.53;17.73;;;;;;;-8.79;100.00;101855.78;5068908;28;20036;-70
2022/12/18 02:00:03;;;;;;;55.22;18.92;;;;;;;-8.84;100.00;101865.84;5062138;28;21285;-70
2022/12/18 02:02:32;;;;;;;46.28;16.83;;;;;;;-8.89;100.00;101865.56;5071070;28;20155;-69
2022/12/18 02:04:59;;;;;;;46.05;17.60;;;;;;;-8.88;100.00;101866.47;5061077;28;20111;-70
2022/12/18 02:07:32;;;;;;;50.33;17.27;;;;;;;-8.86;100.00;101868.31;5067744;28;20101;-70
2022/12/18 02:10:26;;;;;;;51.80;18.05;;;;;;;-8.84;100.00;101859.81;5066701;28;20047;-70
2022/12/18 02:12:58;;;;;;;48.25;17.17;;;;;;;-8.77;100.00;101861.91;5066962;28;20127;-70
2022/12/18 02:15:33;;;;;;;50.53;17.67;;;;;;;-8.71;100.00;101859.66;5063632;28;20045;-70
2022/12/18 02:18:06;;;;;;;49.30;17.75;;;;;;;-8.88;100.00;101815.13;5066830;28;20079;-70
2022/12/18 02:20:41;;;;;;;52.65;19.00;;;;;;;-8.65;100.00;101858.28;5069616;28;20048;-70
2022/12/18 02:23:24;;;;;;;55.30;18.55;;;;;;;-8.69;100.00;101863.22;5071032;28;20048;-69
2022/12/18 02:26:14;;;;;;;61.10;18.58;;;;;;;-8.71;100.00;101858.00;5066116;28;20677;-70
2022/12/18 02:29:06;;;;;;;58.72;18.80;;;;;;;-8.64;100.00;101856.59;5068451;28;20082;-69
2022/12/18 02:31:43;;;;;;;51.50;18.88;;;;;;;-8.74;100.00;101824.44;5069691;28;20048;-70
2022/12/18 02:34:11;;;;;;;53.80;18.52;;;;;;;-8.60;100.00;101840.56;5072261;28;20048;-70
2022/12/18 02:36:42;;;;;;;54.97;18.30;;;;;;;-8.58;100.00;101844.09;5077771;28;20143;-70
2022/12/18 02:39:12;;;;;;;47.30;17.25;;;;;;;-8.57;100.00;101839.06;5087506;28;20686;-69
2022/12/18 02:41:39;;;;;;;46.60;18.57;;;;;;;-8.60;100.00;101841.44;5075088;28;20048;-71
2022/12/18 02:44:09;;;;;;;56.25;18.95;;;;;;;-8.63;100.00;101843.84;5066952;28;21024;-69
2022/12/18 02:46:56;;;;;;;46.88;17.95;;;;;;;-8.59;100.00;101857.75;5069696;28;20052;-71
2022/12/18 02:49:51;;;;;;;50.15;17.48;;;;;;;-8.59;100.00;101858.63;5073118;28;20052;-69
2022/12/18 02:52:36;;;;;;;58.25;19.23;;;;;;;-8.63;100.00;101853.25;5063709;28;20515;-70
2022/12/18 02:55:50;;;;;;;54.55;18.27;;;;;;;-8.69;100.00;101850.38;5064303;28;20056;-70
2022/12/18 02:58:47;;;;;;;52.08;17.63;;;;;;;-8.73;100.00;101843.28;5046135;28;20751;-70
2022/12/18 03:01:25;;;;;;;47.75;16.90;;;;;;;-8.79;100.00;101841.28;5070142;28;20403;-69
2022/12/18 03:03:59;;;;;;;51.23;17.83;;;;;;;-8.80;100.00;101844.63;5070203;28;20048;-69
2022/12/18 03:06:40;;;;;;;54.53;17.53;;;;;;;-8.88;100.00;101836.53;5073878;28;20117;-69
2022/12/18 03:09:10;;;;;;;46.20;17.57;;;;;;;-8.87;100.00;101851.13;5060326;28;20382;-70
2022/12/18 03:14:30;;;;;;;48.27;18.20;;;;;;;-8.90;100.00;101863.81;5066222;28;20077;-71
2022/12/18 03:17:01;;;;;;;54.43;17.70;;;;;;;-8.89;100.00;101850.16;5064951;28;20911;-70
2022/12/18 03:19:31;;;;;;;47.83;17.63;;;;;;;-8.82;100.00;101851.41;5071714;28;20039;-71
2022/12/18 03:22:02;;;;;;;48.20;17.55;;;;;;;-8.80;100.00;101859.16;5076029;28;20488;-69
2022/12/18 03:24:29;;;;;;;;;;;;;;;-8.82;100.00;101856.53;5067933;28;20147;-71
2022/12/18 03:27:02;;;;;;;47.28;16.33;;;;;;;-8.81;100.00;101847.16;5065902;28;20129;-71
2022/12/18 03:29:54;;;;;;;47.10;16.88;;;;;;;-8.85;100.00;101843.53;5072592;28;20143;-70
2022/12/18 03:32:29;;;;;;;46.40;16.33;;;;;;;-8.94;100.00;101835.31;5062566;28;20036;-71
2022/12/18 03:35:00;;;;;;;50.90;18.00;;;;;;;-9.10;100.00;101805.38;5063647;28;20040;-71
2022/12/18 03:37:27;;;;;;;49.78;18.05;;;;;;;-8.98;100.00;101823.13;5068699;28;20051;-71
2022/12/18 03:39:54;;;;;;;51.15;17.88;;;;;;;-8.81;100.00;101848.00;5070341;28;20059;-70
2022/12/18 03:42:48;;;;;;;46.15;17.13;;;;;;;-8.83;100.00;101846.19;5068871;28;20070;-71
2022/12/18 03:45:32;;;;;;;47.03;16.98;;;;;;;-8.86;100.00;101847.78;5068215;28;20052;-69
2022/12/18 03:48:05;;;;;;;48.67;17.45;;;;;;;-8.82;100.00;101847.94;5071928;28;20428;-70
2022/12/18 03:50:38;;;;;;;48.83;17.83;;;;;;;-8.83;100.00;101841.03;5069120;28;20048;-69
2022/12/18 03:53:20;;;;;;;46.05;16.42;;;;;;;-8.84;100.00;101846.97;5070812;28;20052;-71
2022/12/18 03:55:49;;;;;;;46.88;18.45;;;;;;;-8.99;100.00;101817.13;5064406;28;20721;-69
2022/12/18 03:58:19;;;;;;;43.25;16.35;;;;;;;-8.86;100.00;101836.63;5069240;28;20048;-70
2022/12/18 04:00:49;;;;;;;47.05;17.85;;;;;;;-8.80;100.00;101830.91;5066015;28;20048;-70
2022/12/18 04:03:18;;;;;;;44.75;17.48;;;;;;;-8.83;100.00;101826.53;5067210;28;20044;-70
2022/12/18 04:05:54;;;;;;;44.30;17.45;;;;;;;-8.81;100.00;101837.72;5066089;28;20048;-70
2022/12/18 04:08:22;;;;;;;43.53;16.45;;;;;;;-8.77;100.00;101855.06;5067522;28;20394;-70
2022/12/18 04:10:48;;;;;;;43.38;16.60;;;;;;;-8.78;100.00;101855.00;5068388;28;20138;-70
2022/12/18 04:13:28;;;;;;;41.80;17.33;;;;;;;-8.82;100.00;101846.28;5080202;28;20036;-69
2022/12/18 04:15:55;;;;;;;40.97;16.60;;;;;;;-8.96;100.00;101818.94;5065393;28;20052;-71
2022/12/18 04:18:21;;;;;;;43.85;16.95;;;;;;;-8.71;100.00;101837.44;5072477;28;20037;-70
2022/12/18 04:20:48;;;;;;;42.40;16.45;;;;;;;-8.72;100.00;101829.66;5074288;28;20393;-70
2022/12/18 04:23:14;;;;;;;38.60;16.23;;;;;;;-8.71;100.00;101834.00;5069341;28;20048;-70
2022/12/18 04:25:41;;;;;;;44.80;16.63;;;;;;;-8.77;100.00;101838.78;5064720;28;20056;-70
2022/12/18 04:28:07;;;;;;;44.70;16.65;;;;;;;-8.81;100.00;101844.59;5066946;28;20048;-70
2022/12/18 04:30:34;;;;;;;47.97;18.17;;;;;;;-8.84;100.00;101844.41;5073031;28;20059;-70
2022/12/18 04:33:01;;;;;;;43.38;17.27;;;;;;;-8.86;100.00;101832.38;5073286;28;20055;-71
2022/12/18 04:35:27;;;;;;;43.28;17.40;;;;;;;-8.86;100.00;101836.63;5070988;28;20051;-70
2022/12/18 04:37:54;;;;;;;43.92;16.58;;;;;;;-8.86;100.00;101840.06;5076690;28;20036;-69
2022/12/18 04:40:21;;;;;;;43.90;16.67;;;;;;;-8.83;100.00;101848.75;5083786;28;20399;-70
2022/12/18 04:42:47;;;;;;;46.03;16.92;;;;;;;-8.89;100.00;101834.78;5065829;28;20043;-70
2022/12/18 04:45:14;;;;;;;46.03;16.92;;;;;;;-9.10;100.00;101800.25;5062510;28;20040;-69
2022/12/18 04:47:41;;;;;;;48.10;17.13;;;;;;;-8.95;100.00;101823.28;5067717;28;20062;-70
2022/12/18 04:50:07;;;;;;;43.72;18.13;;;;;;;-8.90;100.00;101827.88;5065569;28;20052;-70
2022/12/18 04:52:34;;;;;;;41.75;16.30;;;;;;;-8.92;100.00;101826.91;5065591;28;20068;-70
2022/12/18 04:55:00;;;;;;;47.75;17.52;;;;;;;-9.08;100.00;101805.44;5060118;28;20163;-70
2022/12/18 04:57:27;;;;;;;45.67;17.38;;;;;;;-8.88;100.00;101830.53;5064842;28;20071;-69
2022/12/18 04:59:53;;;;;;;37.92;16.42;;;;;;;-8.88;100.00;101815.13;5072178;28;20064;-70
2022/12/18 05:02:20;;;;;;;45.20;17.52;;;;;;;-8.81;100.00;101829.19;5067258;28;20044;-70
2022/12/18 05:04:47;;;;;;;43.65;17.30;;;;;;;-8.83;100.00;101812.81;5065601;28;20060;-69
2022/12/18 05:07:13;;;;;;;42.22;17.13;;;;;;;-8.82;100.00;101825.72;5065528;28;20054;-69
2022/12/18 05:09:40;;;;;;;41.75;17.33;;;;;;;-9.00;100.00;101794.81;5071553;28;20044;-69
2022/12/18 05:12:07;;;;;;;45.38;17.10;;;;;;;-8.74;100.00;101844.09;5077688;28;20488;-69
2022/12/18 05:14:33;;;;;;;48.05;16.70;;;;;;;-8.72;100.00;101850.19;5076561;28;20044;-69
2022/12/18 05:17:00;;;;;;;50.08;18.33;;;;;;;-8.74;100.00;101859.50;5069094;28;20054;-70
2022/12/18 05:19:27;;;;;;;41.55;17.08;;;;;;;-8.82;100.00;101847.94;5077115;28;20055;-70
2022/12/18 05:21:53;;;;;;;51.05;17.85;;;;;;;-8.82;100.00;101855.66;5069585;28;20049;-70
2022/12/18 05:24:21;;;;;;;48.47;18.63;;;;;;;-8.84;100.00;101849.53;5066316;28;20514;-71
2022/12/18 05:26:47;;;;;;;46.90;18.52;;;;;;;-8.86;100.00;101854.59;5061483;28;20048;-70
2022/12/18 05:29:14;;;;;;;50.13;19.23;;;;;;;-8.90;100.00;101844.94;5068843;28;20086;-70
2022/12/18 05:31:40;;;;;;;51.05;19.65;;;;;;;-8.95;100.00;101842.13;5068360;28;20048;-71
2022/12/18 05:34:08;;;;;;;52.35;19.35;;;;;;;-8.91;100.00;101856.00;5073602;28;20553;-70
2022/12/18 05:36:36;;;;;;;53.28;21.10;;;;;;;-9.01;100.00;101840.94;5056845;28;20040;-71
2022/12/18 05:39:03;;;;;;;56.70;21.25;;;;;;;-8.94;100.00;101855.84;5065812;28;20052;-70
2022/12/18 05:41:30;;;;;;;52.75;20.13;;;;;;;-8.94;100.00;101846.47;5063720;28;20044;-70
2022/12/18 05:43:56;;;;;;;50.42;18.45;;;;;;;-8.92;100.00;101834.59;5065149;28;20040;-70
2022/12/18 05:46:24;;;;;;;54.10;19.50;;;;;;;-8.88;100.00;101822.81;5061905;28;20048;-70
2022/12/18 05:48:51;;;;;;;45.88;18.30;;;;;;;-8.97;100.00;101802.66;5069545;28;20045;-71
2022/12/18 05:51:20;;;;;;;48.28;18.85;;;;;;;-8.78;100.00;101830.19;5064928;28;20048;-70
2022/12/18 05:53:48;;;;;;;47.22;17.67;;;;;;;-8.80;100.00;101829.22;5066616;28;20481;-69
2022/12/18 05:56:17;;;;;;;42.53;17.67;;;;;;;-8.72;100.00;101838.25;5061632;28;20479;-70
2022/12/18 05:58:45;;;;;;;42.75;17.23;;;;;;;-8.68;100.00;101836.72;5063502;28;20051;-70
2022/12/18 06:01:21;;;;;;;45.25;17.55;;;;;;;-8.67;100.00;101841.06;5063801;28;20044;-70
2022/12/18 06:03:48;;;;;;;43.10;17.17;;;;;;;-8.65;100.00;101842.00;5066846;28;20048;-70
2022/12/18 06:06:16;;;;;;;51.10;18.58;;;;;;;-8.68;100.00;101847.00;5069522;28;20055;-70
2022/12/18 06:08:42;;;;;;;41.20;17.30;;;;;;;-8.78;100.00;101847.28;5070410;28;20079;-72
2022/12/18 06:11:13;;;;;;;38.53;16.35;;;;;;;-9.00;100.00;101817.03;5069996;28;20130;-70
2022/12/18 06:13:41;;;;;;;42.25;16.77;;;;;;;-8.86;100.00;101841.75;5069971;28;20047;-69
2022/12/18 06:16:08;;;;;;;41.90;17.40;;;;;;;-8.90;100.00;101850.97;5059738;28;20453;-69
2022/12/18 06:18:35;;;;;;;49.75;18.80;;;;;;;-9.05;100.00;101829.59;5070820;28;20479;-69
2022/12/18 06:21:01;;;;;;;42.60;17.85;;;;;;;-8.86;100.00;101855.47;5072788;28;20059;-69
2022/12/18 06:23:28;;;;;;;41.53;17.98;;;;;;;-8.82;100.00;101858.22;5069937;28;20071;-70
2022/12/18 06:25:57;;;;;;;43.13;16.90;;;;;;;-8.86;100.00;101857.16;5065315;28;20067;-70
2022/12/18 06:28:24;;;;;;;43.30;17.42;;;;;;;-9.05;100.00;101828.72;5075042;28;20048;-70
2022/12/18 06:30:50;;;;;;;42.53;17.10;;;;;;;-8.88;100.00;101867.34;5074054;28;20051;-71
2022/12/18 06:33:17;;;;;;;43.33;17.02;;;;;;;-8.87;100.00;101863.97;5068034;28;20123;-69
2022/12/18 06:35:44;;;;;;;41.42;16.70;;;;;;;-8.82;100.00;101871.94;5066132;28;20047;-70
2022/12/18 06:38:10;;;;;;;42.90;16.52;;;;;;;-9.02;100.00;101854.56;5075622;28;20842;-70
2022/12/18 06:40:39;;;;;;;43.10;17.05;;;;;;;-8.92;100.00;101885.94;5081021;28;20051;-69
2022/12/18 06:43:06;;;;;;;47.10;17.83;;;;;;;-9.08;100.00;101854.22;5074061;28;20048;-72
2022/12/18 06:45:32;;;;;;;42.53;17.25;;;;;;;-8.91;100.00;101877.44;5071026;28;20065;-70
2022/12/18 06:47:59;;;;;;;42.08;17.17;;;;;;;-8.91;100.00;101881.69;5073626;28;20051;-71
2022/12/18 06:50:25;;;;;;;38.50;16.13;;;;;;;-9.09;100.00;101845.63;5071371;28;20055;-71
2022/12/18 06:52:52;;;;;;;42.67;17.13;;;;;;;-8.89;100.00;101883.53;5069871;28;20048;-69
2022/12/18 06:55:18;;;;;;;41.67;17.90;;;;;;;-8.93;100.00;101890.97;5070296;28;20051;-70
2022/12/18 06:57:45;;;;;;;42.00;16.98;;;;;;;-8.98;100.00;101887.31;5068520;28;20055;-69
2022/12/18 07:00:12;;;;;;;43.75;17.52;;;;;;;-9.21;100.00;101848.41;5077529;28;20056;-70
2022/12/18 07:02:40;;;;;;;44.53;17.08;;;;;;;-8.95;100.00;101888.31;5074766;28;20047;-69
2022/12/18 07:05:07;;;;;;;41.70;16.48;;;;;;;-8.95;100.00;101888.31;5067678;28;20044;-71
2022/12/18 07:07:36;;;;;;;31.27;11.73;;;;;;;-8.89;100.00;101896.38;5076016;28;20044;-70
2022/12/18 07:10:04;;;;;;;45.50;17.58;;;;;;;-9.08;100.00;101860.22;5082432;28;20801;-70
2022/12/18 07:12:30;;;;;;;43.42;16.35;;;;;;;-8.96;100.00;101890.81;5083104;28;20143;-70
2022/12/18 07:14:57;;;;;;;39.03;16.60;;;;;;;-9.01;100.00;101888.00;5078497;27;20048;-70
2022/12/18 07:17:23;;;;;;;43.92;17.50;;;;;;;-8.98;100.00;101895.88;5075392;28;20040;-70
2022/12/18 07:19:50;;;;;;;44.95;16.83;;;;;;;-9.00;100.00;101900.03;5080075;28;20048;-70
2022/12/18 07:22:17;;;;;;;47.08;17.95;;;;;;;-9.08;100.00;101895.25;5080688;28;20047;-69
2022/12/18 07:24:43;;;;;;;50.90;18.88;;;;;;;-9.06;100.00;101893.66;5079282;27;20055;-71
2022/12/18 07:27:10;;;;;;;43.53;16.10;;;;;;;-9.03;100.00;101894.72;5071897;28;20040;-70
2022/12/18 07:29:37;;;;;;;41.85;17.80;;;;;;;-9.02;100.00;101900.75;5079234;28;20052;-70
2022/12/18 07:32:05;;;;;;;43.20;16.90;;;;;;;-9.02;100.00;101881.09;5078656;28;20048;-71
2022/12/18 07:34:31;;;;;;;45.15;17.60;;;;;;;-8.98;100.00;101882.16;5074263;28;20567;-70
2022/12/18 07:36:58;;;;;;;49.85;18.13;;;;;;;-8.98;100.00;101871.91;5066902;28;20048;-71
2022/12/18 07:39:25;;;;;;;45.55;17.65;;;;;;;-8.95;100.00;101877.16;5066884;28;20044;-69
2022/12/18 07:44:37;;;;;;;44.05;17.95;;;;;;;-8.76;100.00;101899.59;5070974;28;20055;-72
2022/12/18 07:47:03;;;;;;;42.60;17.70;;;;;;;-8.69;100.00;101905.19;5067160;28;20072;-71
2022/12/18 07:49:37;;;;;;;45.95;16.48;;;;;;;-8.66;100.00;101901.91;5070753;28;20072;-70
2022/12/18 07:52:03;;;;;;;43.83;18.52;;;;;;;-8.65;100.00;101893.34;5067968;28;20056;-70
2022/12/18 07:54:30;;;;;;;44.60;17.70;;;;;;;-8.65;100.00;101889.09;5070397;28;20082;-70
2022/12/18 07:56:56;;;;;;;42.47;17.80;;;;;;;-8.61;100.00;101890.16;5066913;28;20040;-69
2022/12/18 07:59:23;;;;;;;43.72;18.08;;;;;;;-8.50;100.00;101899.34;5068367;28;20044;-70
2022/12/18 08:01:49;;;;;;;45.15;18.95;;;;;;;-8.45;100.00;101903.03;5071286;28;20055;-69
2022/12/18 08:04:16;;;;;;;45.80;19.10;;;;;;;-8.39;100.00;101892.22;5071757;28;20482;-69
2022/12/18 08:06:43;;;;;;;42.40;17.25;;;;;;;-8.55;100.00;101864.81;5063450;28;20066;-69
2022/12/18 08:09:13;;;;;;;43.55;17.73;;;;;;;-8.57;100.00;101869.00;5070019;28;20127;-70
2022/12/18 08:11:40;;;;;;;45.53;19.08;;;;;;;-8.34;100.00;101901.06;5071498;28;20050;-70
2022/12/18 08:14:07;;;;;;;44.65;18.67;;;;;;;-8.45;100.00;101872.19;5081843;28;20040;-69
2022/12/18 08:16:33;;;;;;;47.80;19.33;;;;;;;-8.25;100.00;101889.53;5064274;28;20052;-70
2022/12/18 08:19:00;;;;;;;44.17;18.35;;;;;;;-8.18;100.00;101895.84;5072168;28;20113;-71
2022/12/18 08:21:29;;;;;;;46.15;19.55;;;;;;;-8.04;100.00;101897.47;5070414;28;20056;-71
2022/12/18 08:23:57;;;;;;;47.33;19.35;;;;;;;-7.95;100.00;101910.78;5070274;28;20434;-70
2022/12/18 08:26:27;;;;;;;47.03;19.02;;;;;;;-7.87;100.00;101906.91;5063214;28;20540;-71
2022/12/18 08:28:58;;;;;;;47.28;19.25;;;;;;;-7.69;100.00;101906.97;5065916;28;20037;-69
2022/12/18 08:31:26;;;;;;;43.42;19.77;;;;;;;-7.53;100.00;101906.03;5069881;28;20431;-70
2022/12/18 08:33:53;;;;;;;48.22;19.67;;;;;;;-7.45;100.00;101904.75;5075871;28;20067;-70
2022/12/18 08:36:21;;;;;;;50.33;20.17;;;;;;;-7.36;100.00;101891.44;5072118;28;20049;-69
2022/12/18 08:38:48;;;;;;;45.33;19.40;;;;;;;-7.28;100.00;101888.44;5072268;28;20056;-69
2022/12/18 08:41:16;;;;;;;45.30;19.42;;;;;;;-7.30;100.00;101850.56;5076220;28;20055;-70
2022/12/18 08:46:34;;;;;;;47.45;19.75;;;;;;;-6.87;100.00;101881.81;5063141;28;20709;-70
2022/12/18 08:49:01;;;;;;;45.75;21.42;;;;;;;-6.75;100.00;101877.22;5072497;28;20045;-70
2022/12/18 08:51:28;;;;;;;49.83;21.45;;;;;;;-6.66;100.00;101872.50;5066737;28;20415;-70
2022/12/18 08:53:54;;;;;;;45.88;20.45;;;;;;;-6.56;100.00;101868.66;5073533;28;20363;-71
2022/12/18 08:56:21;;;;;;;42.75;20.02;;;;;;;-6.49;100.00;101861.28;5062828;28;21458;-71
2022/12/18 08:58:51;;;;;;;44.65;19.65;;;;;;;-6.38;100.00;101856.59;5065434;28;20058;-70
2022/12/18 09:01:18;;;;;;;45.40;20.30;;;;;;;-6.29;100.00;101862.13;5065310;28;20127;-69
2022/12/18 09:03:45;;;;;;;47.97;21.13;;;;;;;-6.40;100.00;101828.16;5070530;28;20052;-70
2022/12/18 09:06:17;;;;;;;47.60;21.05;;;;;;;-6.11;100.00;101865.53;5068301;28;20048;-70
2022/12/18 09:08:44;;;;;;;50.17;21.63;;;;;;;-6.02;100.00;101873.69;5077799;28;20058;-70
2022/12/18 09:11:20;;;;;;;49.80;23.58;;;;;;;-5.97;100.00;101873.88;5076519;28;20044;-70
2022/12/18 09:13:46;;;;;;;48.25;22.48;;;;;;;-5.89;100.00;101877.66;5081549;28;20075;-70
2022/12/18 09:16:13;;;;;;;52.85;23.77;;;;;;;-5.97;100.00;101854.94;5073616;28;20116;-71
2022/12/18 09:18:40;;;;;;;50.47;23.48;;;;;;;-5.78;100.00;101872.94;5080280;28;20097;-70
2022/12/18 09:21:18;;;;;;;55.58;25.40;;;;;;;-5.66;100.00;101876.91;5070489;28;20119;-70
2022/12/18 09:23:52;;;;;;;53.88;25.55;;;;;;;-5.65;100.00;101870.03;5069083;28;20052;-69
2022/12/18 09:26:20;;;;;;;56.30;25.40;;;;;;;-5.57;100.00;101885.84;5065465;28;20053;-72
2022/12/18 09:28:46;;;;;;;56.00;25.55;;;;;;;-5.69;100.00;101857.84;5064987;28;20051;-72
2022/12/18 09:31:13;;;;;;;54.38;26.50;;;;;;;-5.53;100.00;101873.16;5068615;28;20044;-71
2022/12/18 09:33:40;;;;;;;55.20;25.63;;;;;;;-5.50;100.00;101886.16;5070423;28;20135;-70
2022/12/18 09:36:10;;;;;;;55.78;26.08;;;;;;;-5.51;100.00;101876.66;5067368;28;20052;-72
2022/12/18 09:38:37;;;;;;;42.58;20.98;;;;;;;-5.42;100.00;101886.50;5064448;28;20507;-72
2022/12/18 09:41:29;;;;;;;54.63;25.02;;;;;;;-5.34;100.00;101892.84;5064988;28;20404;-70
2022/12/18 09:44:01;;;;;;;54.78;25.45;;;;;;;-5.36;100.00;101889.34;5069337;28;20056;-71
2022/12/18 09:46:37;;;;;;;54.95;26.00;;;;;;;-5.33;100.00;101887.75;5066291;28;20049;-73
2022/12/18 09:49:11;;;;;;;57.50;26.88;;;;;;;-5.51;100.00;101848.25;5067842;28;20826;-71
2022/12/18 09:51:55;;;;;;;52.80;25.60;;;;;;;-5.21;100.00;101889.09;5069233;28;20060;-70
2022/12/18 09:54:54;;;;;;;56.20;26.10;;;;;;;-5.09;100.00;101899.91;5070102;28;20048;-70
2022/12/18 09:57:24;;;;;;;56.42;26.13;;;;;;;-5.09;100.00;101894.72;5065113;28;20082;-70
2022/12/18 10:00:04;;;;;;;55.90;26.75;;;;;;;-5.16;100.00;101869.47;5066784;28;20264;-70
2022/12/18 10:02:32;;;;;;;52.60;25.90;;;;;;;-5.08;100.00;101870.66;5070376;28;20044;-70
2022/12/18 10:05:05;;;;;;;60.53;28.00;;;;;;;-4.91;100.00;101887.72;5063983;28;20059;-70
2022/12/18 10:08:06;;;;;;;54.15;25.58;;;;;;;-4.83;100.00;101896.63;5070773;28;20059;-71
2022/12/18 10:10:41;;;;;;;59.35;26.83;;;;;;;-4.81;100.00;101899.28;5043739;28;20064;-70
2022/12/18 10:13:19;;;;;;;58.22;27.83;;;;;;;-4.82;100.00;101903.56;5069171;28;20055;-71
2022/12/18 10:15:55;;;;;;;;;;;;;;;-4.79;100.00;101895.06;5060712;28;20123;-72
2022/12/18 10:19:23;;;;;;;53.70;25.05;;;;;;;-4.75;100.00;101895.25;5066574;28;19929;-70
2022/12/18 10:22:22;;;;;;;59.88;27.02;;;;;;;-4.57;100.00;101894.19;5036905;28;21304;-70
2022/12/18 10:25:00;;;;;;;46.15;21.88;;;;;;;-4.45;100.00;101887.78;5070636;28;20078;-70
2022/12/18 10:27:28;;;;;;;56.38;26.73;;;;;;;-4.38;100.00;101874.22;5066968;28;20049;-70
2022/12/18 10:29:57;;;;;;;60.72;27.70;;;;;;;-4.35;100.00;101863.13;5067796;28;20036;-70
2022/12/18 10:32:29;;;;;;;59.20;26.50;;;;;;;-4.33;100.00;101866.66;5070011;28;20048;-70
2022/12/18 10:34:57;;;;;;;60.70;27.73;;;;;;;-4.31;100.00;101871.06;5071769;28;20051;-70
2022/12/18 10:37:28;;;;;;;;;;;;;;;-4.32;100.00;101868.41;5065445;28;20043;-70
2022/12/18 10:40:11;;;;;;;59.97;25.25;;;;;;;-4.38;100.00;101874.22;5067048;28;19931;-71
2022/12/18 10:42:45;;;;;;;58.83;26.00;;;;;;;-4.47;100.00;101878.19;5067343;28;20045;-71
2022/12/18 10:45:17;;;;;;;61.20;27.60;;;;;;;-4.52;100.00;101884.88;5072264;28;20048;-69
2022/12/18 10:47:48;;;;;;;64.95;28.95;;;;;;;-4.52;100.00;101875.44;5070495;28;20064;-71
2022/12/18 10:50:34;;;;;;;;;;;;;;;-4.42;100.00;101880.13;5072127;28;20075;-71
2022/12/18 10:53:29;;;;;;;56.15;23.98;;;;;;;-4.39;100.00;101875.06;5071539;28;19920;-70
2022/12/18 10:55:58;;;;;;;67.57;27.33;;;;;;;-4.35;100.00;101891.56;5069669;28;20492;-70
2022/12/18 10:58:34;;;;;;;61.58;23.73;;;;;;;-4.41;100.00;101875.84;5070321;28;20050;-73
2022/12/18 11:01:07;;;;;;;63.33;26.23;;;;;;;-4.58;100.00;101839.03;5083771;28;20167;-71
2022/12/18 11:03:39;;;;;;;61.88;27.00;;;;;;;-4.33;100.00;101872.72;5082312;28;20048;-70
2022/12/18 11:06:08;;;;;;;60.65;26.35;;;;;;;-4.49;100.00;101847.09;5081141;27;20064;-70
2022/12/18 11:08:35;;;;;;;61.88;27.23;;;;;;;-4.28;100.00;101878.06;5074256;28;20143;-71
2022/12/18 11:11:02;;;;;;;65.60;27.15;;;;;;;-4.27;100.00;101885.88;5075829;28;20476;-73
2022/12/18 11:13:31;;;;;;;59.13;25.85;;;;;;;-4.34;100.00;101875.22;5075178;28;20066;-69
2022/12/18 11:15:59;;;;;;;59.00;26.20;;;;;;;-4.30;100.00;101875.41;5075941;28;20063;-71
2022/12/18 11:18:34;;;;;;;66.60;27.70;;;;;;;-4.29;100.00;101863.38;5074173;28;20086;-70
2022/12/18 11:21:12;;;;;;;57.78;25.80;;;;;;;-4.29;100.00;101874.59;5082765;28;20051;-70
2022/12/18 11:23:53;;;;;;;57.22;25.30;;;;;;;-4.30;100.00;101887.47;5082899;28;20051;-69
2022/12/18 11:26:21;;;;;;;63.38;27.23;;;;;;;-4.20;100.00;101875.72;5076029;28;20047;-71